sensor_id;sensor_type;location;lat;lon;timestamp;temperature;humidity
71188;DHT22;58893;53.130;8.158;2023-01-25T00:02:03;4.60;70.20
71188;DHT22;58893;53.130;8.158;2023-01-25T00:04:29;4.60;70.30
71188;DHT22;58893;53.130;8.158;2023-01-25T00:06:55;4.60;70.30
71188;DHT22;58893;53.130;8.158;2023-01-25T00:09:21;4.60;70.30
71188;DHT22;58893;53.130;8.158;2023-01-25T00:11:48;4.60;70.50
71188;DHT22;58893;53.130;8.158;2023-01-25T00:14:14;4.60;70.70
71188;DHT22;58893;53.130;8.158;2023-01-25T00:16:41;4.60;70.40
71188;DHT22;58893;53.130;8.158;2023-01-25T00:19:07;4.60;70.00
71188;DHT22;58893;53.130;8.158;2023-01-25T00:21:34;4.60;69.80
71188;DHT22;58893;53.130;8.158;2023-01-25T00:24:01;4.60;69.90
71188;DHT22;58893;53.130;8.158;2023-01-25T00:26:31;4.60;70.00
71188;DHT22;58893;53.130;8.158;2023-01-25T00:28:57;4.60;70.00
71188;DHT22;58893;53.130;8.158;2023-01-25T00:36:55;4.60;70.20
71188;DHT22;58893;53.130;8.158;2023-01-25T00:39:25;4.60;70.20
71188;DHT22;58893;53.130;8.158;2023-01-25T00:41:51;4.60;70.20
71188;DHT22;58893;53.130;8.158;2023-01-25T00:44:16;4.60;70.30
71188;DHT22;58893;53.130;8.158;2023-01-25T00:46:42;4.60;70.20
71188;DHT22;58893;53.130;8.158;2023-01-25T00:49:19;4.60;70.10
71188;DHT22;58893;53.130;8.158;2023-01-25T00:51:46;4.60;70.00
71188;DHT22;58893;53.130;8.158;2023-01-25T00:54:11;4.60;69.80
71188;DHT22;58893;53.130;8.158;2023-01-25T00:56:37;4.60;69.70
71188;DHT22;58893;53.130;8.158;2023-01-25T00:59:02;4.60;69.80
71188;DHT22;58893;53.130;8.158;2023-01-25T01:01:28;4.60;69.90
71188;DHT22;58893;53.130;8.158;2023-01-25T01:03:54;4.60;69.80
71188;DHT22;58893;53.130;8.158;2023-01-25T01:06:19;4.60;69.80
71188;DHT22;58893;53.130;8.158;2023-01-25T01:08:45;4.60;69.70
71188;DHT22;58893;53.130;8.158;2023-01-25T01:11:11;4.60;69.90
71188;DHT22;58893;53.130;8.158;2023-01-25T01:13:38;4.60;69.90
71188;DHT22;58893;53.130;8.158;2023-01-25T01:16:05;4.60;70.10
71188;DHT22;58893;53.130;8.158;2023-01-25T01:18:34;4.60;70.20
71188;DHT22;58893;53.130;8.158;2023-01-25T01:21:00;4.60;70.20
71188;DHT22;58893;53.130;8.158;2023-01-25T01:23:27;4.60;70.20
71188;DHT22;58893;53.130;8.158;2023-01-25T01:25:53;4.60;70.20
71188;DHT22;58893;53.130;8.158;2023-01-25T01:28:19;4.50;70.10
71188;DHT22;58893;53.130;8.158;2023-01-25T01:30:45;4.60;70.20
71188;DHT22;58893;53.130;8.158;2023-01-25T01:33:10;4.50;70.30
71188;DHT22;58893;53.130;8.158;2023-01-25T01:35:36;4.50;70.50
71188;DHT22;58893;53.130;8.158;2023-01-25T01:38:02;4.50;70.50
71188;DHT22;58893;53.130;8.158;2023-01-25T01:40:28;4.50;70.60
71188;DHT22;58893;53.130;8.158;2023-01-25T01:43:05;4.50;70.60
71188;DHT22;58893;53.130;8.158;2023-01-25T01:51:18;4.60;70.80
71188;DHT22;58893;53.130;8.158;2023-01-25T01:53:53;4.60;71.00
71188;DHT22;58893;53.130;8.158;2023-01-25T01:56:27;4.60;71.10
71188;DHT22;58893;53.130;8.158;2023-01-25T01:58:54;4.60;71.30
71188;DHT22;58893;53.130;8.158;2023-01-25T02:01:21;4.60;71.30
71188;DHT22;58893;53.130;8.158;2023-01-25T02:03:48;4.60;71.30
71188;DHT22;58893;53.130;8.158;2023-01-25T02:06:28;4.60;71.30
71188;DHT22;58893;53.130;8.158;2023-01-25T02:08:56;4.60;71.30
71188;DHT22;58893;53.130;8.158;2023-01-25T02:11:23;4.60;71.30
71188;DHT22;58893;53.130;8.158;2023-01-25T02:13:50;4.60;71.30
71188;DHT22;58893;53.130;8.158;2023-01-25T02:16:21;4.60;71.10
71188;DHT22;58893;53.130;8.158;2023-01-25T02:18:48;4.60;70.90
71188;DHT22;58893;53.130;8.158;2023-01-25T02:21:14;4.60;70.80
71188;DHT22;58893;53.130;8.158;2023-01-25T02:26:07;4.50;70.90
71188;DHT22;58893;53.130;8.158;2023-01-25T02:28:40;4.50;71.20
71188;DHT22;58893;53.130;8.158;2023-01-25T02:31:07;4.50;71.30
71188;DHT22;58893;53.130;8.158;2023-01-25T02:33:33;4.50;71.40
71188;DHT22;58893;53.130;8.158;2023-01-25T02:38:25;4.50;71.30
71188;DHT22;58893;53.130;8.158;2023-01-25T02:41:08;4.50;71.20
71188;DHT22;58893;53.130;8.158;2023-01-25T02:43:37;4.50;71.40
71188;DHT22;58893;53.130;8.158;2023-01-25T02:48:42;4.50;71.60
71188;DHT22;58893;53.130;8.158;2023-01-25T02:51:08;4.50;71.80
71188;DHT22;58893;53.130;8.158;2023-01-25T02:53:34;4.50;71.90
71188;DHT22;58893;53.130;8.158;2023-01-25T02:56:00;4.50;72.50
71188;DHT22;58893;53.130;8.158;2023-01-25T02:58:26;4.50;72.30
71188;DHT22;58893;53.130;8.158;2023-01-25T03:00:52;4.50;71.80
71188;DHT22;58893;53.130;8.158;2023-01-25T03:03:18;4.50;71.90
71188;DHT22;58893;53.130;8.158;2023-01-25T03:05:43;4.50;72.00
71188;DHT22;58893;53.130;8.158;2023-01-25T03:08:09;4.50;72.00
71188;DHT22;58893;53.130;8.158;2023-01-25T03:10:34;4.50;71.90
71188;DHT22;58893;53.130;8.158;2023-01-25T03:13:00;4.50;71.90
71188;DHT22;58893;53.130;8.158;2023-01-25T03:15:26;4.50;71.90
71188;DHT22;58893;53.130;8.158;2023-01-25T03:17:51;4.50;71.90
71188;DHT22;58893;53.130;8.158;2023-01-25T03:20:17;4.50;71.90
71188;DHT22;58893;53.130;8.158;2023-01-25T03:22:43;4.50;71.90
71188;DHT22;58893;53.130;8.158;2023-01-25T03:25:08;4.50;72.10
71188;DHT22;58893;53.130;8.158;2023-01-25T03:27:34;4.50;72.20
71188;DHT22;58893;53.130;8.158;2023-01-25T03:30:00;4.50;72.10
71188;DHT22;58893;53.130;8.158;2023-01-25T03:32:25;4.50;72.20
71188;DHT22;58893;53.130;8.158;2023-01-25T03:34:51;4.50;72.40
71188;DHT22;58893;53.130;8.158;2023-01-25T03:37:16;4.50;72.50
71188;DHT22;58893;53.130;8.158;2023-01-25T03:39:42;4.50;72.40
71188;DHT22;58893;53.130;8.158;2023-01-25T03:42:08;4.50;72.40
71188;DHT22;58893;53.130;8.158;2023-01-25T03:44:34;4.40;72.30
71188;DHT22;58893;53.130;8.158;2023-01-25T03:46:59;4.40;72.30
71188;DHT22;58893;53.130;8.158;2023-01-25T03:49:25;4.40;72.10
71188;DHT22;58893;53.130;8.158;2023-01-25T03:51:52;4.40;72.00
71188;DHT22;58893;53.130;8.158;2023-01-25T03:54:18;4.40;71.90
71188;DHT22;58893;53.130;8.158;2023-01-25T03:56:43;4.40;71.90
71188;DHT22;58893;53.130;8.158;2023-01-25T03:59:10;4.50;72.60
71188;DHT22;58893;53.130;8.158;2023-01-25T04:01:36;4.50;72.00
71188;DHT22;58893;53.130;8.158;2023-01-25T04:04:02;4.50;71.90
71188;DHT22;58893;53.130;8.158;2023-01-25T04:06:27;4.40;71.70
71188;DHT22;58893;53.130;8.158;2023-01-25T04:08:53;4.50;71.90
71188;DHT22;58893;53.130;8.158;2023-01-25T04:11:19;4.50;72.00
71188;DHT22;58893;53.130;8.158;2023-01-25T04:13:44;4.50;71.90
71188;DHT22;58893;53.130;8.158;2023-01-25T04:16:10;4.50;71.90
71188;DHT22;58893;53.130;8.158;2023-01-25T04:18:37;4.50;71.80
71188;DHT22;58893;53.130;8.158;2023-01-25T04:21:03;4.50;71.80
71188;DHT22;58893;53.130;8.158;2023-01-25T04:23:29;4.50;71.80
71188;DHT22;58893;53.130;8.158;2023-01-25T04:26:00;4.50;71.80
71188;DHT22;58893;53.130;8.158;2023-01-25T04:28:26;4.50;71.80
71188;DHT22;58893;53.130;8.158;2023-01-25T04:30:53;4.50;71.60
71188;DHT22;58893;53.130;8.158;2023-01-25T04:33:19;4.50;71.40
71188;DHT22;58893;53.130;8.158;2023-01-25T04:35:45;4.50;71.30
71188;DHT22;58893;53.130;8.158;2023-01-25T04:38:11;4.40;71.30
71188;DHT22;58893;53.130;8.158;2023-01-25T04:40:37;4.40;71.30
71188;DHT22;58893;53.130;8.158;2023-01-25T04:43:02;4.40;71.50
71188;DHT22;58893;53.130;8.158;2023-01-25T04:45:28;4.40;71.50
71188;DHT22;58893;53.130;8.158;2023-01-25T04:48:00;4.40;71.50
71188;DHT22;58893;53.130;8.158;2023-01-25T04:50:26;4.40;71.50
71188;DHT22;58893;53.130;8.158;2023-01-25T04:52:52;4.40;71.50
71188;DHT22;58893;53.130;8.158;2023-01-25T04:55:18;4.40;71.70
71188;DHT22;58893;53.130;8.158;2023-01-25T04:57:44;4.40;71.90
71188;DHT22;58893;53.130;8.158;2023-01-25T05:00:10;4.40;71.90
71188;DHT22;58893;53.130;8.158;2023-01-25T05:02:36;4.40;71.90
71188;DHT22;58893;53.130;8.158;2023-01-25T05:05:02;4.40;71.90
71188;DHT22;58893;53.130;8.158;2023-01-25T05:07:28;4.40;71.90
71188;DHT22;58893;53.130;8.158;2023-01-25T05:09:53;4.40;71.80
71188;DHT22;58893;53.130;8.158;2023-01-25T05:12:19;4.40;71.70
71188;DHT22;58893;53.130;8.158;2023-01-25T05:14:45;4.40;71.60
71188;DHT22;58893;53.130;8.158;2023-01-25T05:17:10;4.40;71.50
71188;DHT22;58893;53.130;8.158;2023-01-25T05:19:36;4.40;71.60
71188;DHT22;58893;53.130;8.158;2023-01-25T05:22:02;4.30;71.50
71188;DHT22;58893;53.130;8.158;2023-01-25T05:24:33;4.30;71.60
71188;DHT22;58893;53.130;8.158;2023-01-25T05:26:59;4.30;71.70
71188;DHT22;58893;53.130;8.158;2023-01-25T05:29:36;4.30;71.90
71188;DHT22;58893;53.130;8.158;2023-01-25T05:32:13;4.30;72.00
71188;DHT22;58893;53.130;8.158;2023-01-25T05:34:40;4.30;72.00
71188;DHT22;58893;53.130;8.158;2023-01-25T05:37:07;4.30;72.00
71188;DHT22;58893;53.130;8.158;2023-01-25T05:39:34;4.30;72.00
71188;DHT22;58893;53.130;8.158;2023-01-25T05:42:00;4.20;71.90
71188;DHT22;58893;53.130;8.158;2023-01-25T05:44:25;4.20;71.80
71188;DHT22;58893;53.130;8.158;2023-01-25T05:46:51;4.30;71.80
71188;DHT22;58893;53.130;8.158;2023-01-25T05:49:18;4.30;71.70
71188;DHT22;58893;53.130;8.158;2023-01-25T05:51:44;4.30;71.60
71188;DHT22;58893;53.130;8.158;2023-01-25T05:54:15;4.30;71.60
71188;DHT22;58893;53.130;8.158;2023-01-25T05:56:42;4.30;71.70
71188;DHT22;58893;53.130;8.158;2023-01-25T05:59:09;4.30;71.70
71188;DHT22;58893;53.130;8.158;2023-01-25T06:01:35;4.30;71.70
71188;DHT22;58893;53.130;8.158;2023-01-25T06:04:04;4.30;71.60
71188;DHT22;58893;53.130;8.158;2023-01-25T06:06:30;4.30;71.50
71188;DHT22;58893;53.130;8.158;2023-01-25T06:08:55;4.30;71.40
71188;DHT22;58893;53.130;8.158;2023-01-25T06:11:22;4.30;71.20
71188;DHT22;58893;53.130;8.158;2023-01-25T06:13:49;4.30;71.20
71188;DHT22;58893;53.130;8.158;2023-01-25T06:16:16;4.30;71.70
71188;DHT22;58893;53.130;8.158;2023-01-25T06:18:42;4.30;71.00
71188;DHT22;58893;53.130;8.158;2023-01-25T06:21:08;4.30;71.60
71188;DHT22;58893;53.130;8.158;2023-01-25T06:23:34;4.30;70.90
71188;DHT22;58893;53.130;8.158;2023-01-25T06:26:02;4.20;70.90
71188;DHT22;58893;53.130;8.158;2023-01-25T06:28:31;4.20;70.90
71188;DHT22;58893;53.130;8.158;2023-01-25T06:31:05;4.30;70.90
71188;DHT22;58893;53.130;8.158;2023-01-25T06:33:31;4.30;70.90
71188;DHT22;58893;53.130;8.158;2023-01-25T06:36:05;4.20;70.90
71188;DHT22;58893;53.130;8.158;2023-01-25T06:38:31;4.20;70.90
71188;DHT22;58893;53.130;8.158;2023-01-25T06:41:01;4.20;70.90
71188;DHT22;58893;53.130;8.158;2023-01-25T06:43:28;4.20;70.80
71188;DHT22;58893;53.130;8.158;2023-01-25T06:46:02;4.20;70.70
71188;DHT22;58893;53.130;8.158;2023-01-25T06:48:29;4.20;70.70
71188;DHT22;58893;53.130;8.158;2023-01-25T06:51:00;4.20;70.60
71188;DHT22;58893;53.130;8.158;2023-01-25T06:53:27;4.20;70.80
71188;DHT22;58893;53.130;8.158;2023-01-25T06:56:01;4.20;70.60
71188;DHT22;58893;53.130;8.158;2023-01-25T06:58:28;4.20;70.70
71188;DHT22;58893;53.130;8.158;2023-01-25T07:01:05;4.20;70.70
71188;DHT22;58893;53.130;8.158;2023-01-25T07:03:32;4.20;70.70
71188;DHT22;58893;53.130;8.158;2023-01-25T07:06:08;4.20;70.90
71188;DHT22;58893;53.130;8.158;2023-01-25T07:08:35;4.20;71.00
71188;DHT22;58893;53.130;8.158;2023-01-25T07:11:03;4.20;70.90
71188;DHT22;58893;53.130;8.158;2023-01-25T07:13:30;4.20;70.90
71188;DHT22;58893;53.130;8.158;2023-01-25T07:15:59;4.20;70.90
71188;DHT22;58893;53.130;8.158;2023-01-25T07:18:26;4.20;71.10
71188;DHT22;58893;53.130;8.158;2023-01-25T07:20:52;4.20;71.20
71188;DHT22;58893;53.130;8.158;2023-01-25T07:23:18;4.20;71.20
71188;DHT22;58893;53.130;8.158;2023-01-25T07:25:49;4.20;71.20
71188;DHT22;58893;53.130;8.158;2023-01-25T07:28:16;4.20;71.30
71188;DHT22;58893;53.130;8.158;2023-01-25T07:30:42;4.20;71.30
71188;DHT22;58893;53.130;8.158;2023-01-25T07:33:09;4.20;71.30
71188;DHT22;58893;53.130;8.158;2023-01-25T07:35:35;4.20;71.40
71188;DHT22;58893;53.130;8.158;2023-01-25T07:38:01;4.20;71.40
71188;DHT22;58893;53.130;8.158;2023-01-25T07:40:27;4.20;71.40
71188;DHT22;58893;53.130;8.158;2023-01-25T07:42:52;4.20;71.40
71188;DHT22;58893;53.130;8.158;2023-01-25T07:45:18;4.20;71.40
71188;DHT22;58893;53.130;8.158;2023-01-25T07:47:44;4.20;71.40
71188;DHT22;58893;53.130;8.158;2023-01-25T07:50:10;4.20;71.40
71188;DHT22;58893;53.130;8.158;2023-01-25T07:52:36;4.20;71.40
71188;DHT22;58893;53.130;8.158;2023-01-25T07:55:02;4.20;71.40
71188;DHT22;58893;53.130;8.158;2023-01-25T07:57:28;4.20;71.50
71188;DHT22;58893;53.130;8.158;2023-01-25T07:59:54;4.20;71.50
71188;DHT22;58893;53.130;8.158;2023-01-25T08:02:20;4.20;71.50
71188;DHT22;58893;53.130;8.158;2023-01-25T08:04:45;4.20;71.50
71188;DHT22;58893;53.130;8.158;2023-01-25T08:07:12;4.20;71.50
71188;DHT22;58893;53.130;8.158;2023-01-25T08:09:39;4.20;71.60
71188;DHT22;58893;53.130;8.158;2023-01-25T08:12:06;4.20;71.60
71188;DHT22;58893;53.130;8.158;2023-01-25T08:14:31;4.20;71.50
71188;DHT22;58893;53.130;8.158;2023-01-25T08:16:57;4.20;71.40
71188;DHT22;58893;53.130;8.158;2023-01-25T08:19:23;4.20;71.40
71188;DHT22;58893;53.130;8.158;2023-01-25T08:21:50;4.20;71.40
71188;DHT22;58893;53.130;8.158;2023-01-25T08:24:16;4.20;71.50
71188;DHT22;58893;53.130;8.158;2023-01-25T08:26:41;4.20;71.50
71188;DHT22;58893;53.130;8.158;2023-01-25T08:29:09;4.20;71.60
71188;DHT22;58893;53.130;8.158;2023-01-25T08:31:36;4.20;71.60
71188;DHT22;58893;53.130;8.158;2023-01-25T08:34:04;4.20;71.60
71188;DHT22;58893;53.130;8.158;2023-01-25T08:36:30;4.20;71.60
71188;DHT22;58893;53.130;8.158;2023-01-25T08:38:58;4.20;71.70
71188;DHT22;58893;53.130;8.158;2023-01-25T08:41:24;4.20;71.60
71188;DHT22;58893;53.130;8.158;2023-01-25T08:43:51;4.20;71.50
71188;DHT22;58893;53.130;8.158;2023-01-25T08:46:18;4.10;71.30
71188;DHT22;58893;53.130;8.158;2023-01-25T08:48:44;4.10;71.20
71188;DHT22;58893;53.130;8.158;2023-01-25T08:51:12;4.10;71.20
71188;DHT22;58893;53.130;8.158;2023-01-25T08:53:38;4.10;71.10
71188;DHT22;58893;53.130;8.158;2023-01-25T08:56:09;4.10;71.10
71188;DHT22;58893;53.130;8.158;2023-01-25T08:58:37;4.10;71.00
71188;DHT22;58893;53.130;8.158;2023-01-25T09:01:05;4.10;71.00
71188;DHT22;58893;53.130;8.158;2023-01-25T09:03:38;4.10;71.00
71188;DHT22;58893;53.130;8.158;2023-01-25T09:06:04;4.10;71.00
71188;DHT22;58893;53.130;8.158;2023-01-25T09:08:30;4.10;70.90
71188;DHT22;58893;53.130;8.158;2023-01-25T09:11:03;4.10;71.00
71188;DHT22;58893;53.130;8.158;2023-01-25T09:13:29;4.10;71.10
71188;DHT22;58893;53.130;8.158;2023-01-25T09:16:02;4.10;71.10
71188;DHT22;58893;53.130;8.158;2023-01-25T09:18:29;4.10;71.10
71188;DHT22;58893;53.130;8.158;2023-01-25T09:20:55;4.10;71.20
71188;DHT22;58893;53.130;8.158;2023-01-25T09:23:21;4.10;71.30
71188;DHT22;58893;53.130;8.158;2023-01-25T09:25:54;4.10;71.40
71188;DHT22;58893;53.130;8.158;2023-01-25T09:28:20;4.10;71.40
71188;DHT22;58893;53.130;8.158;2023-01-25T09:30:53;4.10;71.30
71188;DHT22;58893;53.130;8.158;2023-01-25T09:33:19;4.10;71.30
71188;DHT22;58893;53.130;8.158;2023-01-25T09:35:48;4.10;71.30
71188;DHT22;58893;53.130;8.158;2023-01-25T09:38:14;4.10;71.30
71188;DHT22;58893;53.130;8.158;2023-01-25T09:40:47;4.10;71.30
71188;DHT22;58893;53.130;8.158;2023-01-25T09:45:54;4.10;71.40
71188;DHT22;58893;53.130;8.158;2023-01-25T09:48:27;4.10;71.50
71188;DHT22;58893;53.130;8.158;2023-01-25T09:51:22;4.10;71.50
71188;DHT22;58893;53.130;8.158;2023-01-25T09:53:52;4.10;71.40
71188;DHT22;58893;53.130;8.158;2023-01-25T09:56:29;4.10;71.30
71188;DHT22;58893;53.130;8.158;2023-01-25T09:59:09;4.10;71.30
71188;DHT22;58893;53.130;8.158;2023-01-25T10:01:45;4.10;71.20
71188;DHT22;58893;53.130;8.158;2023-01-25T10:04:36;4.10;71.20
71188;DHT22;58893;53.130;8.158;2023-01-25T10:12:56;4.10;71.10
71188;DHT22;58893;53.130;8.158;2023-01-25T10:15:28;4.10;71.20
71188;DHT22;58893;53.130;8.158;2023-01-25T10:20:57;4.10;71.30
71188;DHT22;58893;53.130;8.158;2023-01-25T10:23:31;4.10;71.30
71188;DHT22;58893;53.130;8.158;2023-01-25T10:26:06;4.10;71.30
71188;DHT22;58893;53.130;8.158;2023-01-25T10:28:39;4.10;71.30
71188;DHT22;58893;53.130;8.158;2023-01-25T10:33:44;4.10;71.30
71188;DHT22;58893;53.130;8.158;2023-01-25T10:36:23;4.10;71.40
71188;DHT22;58893;53.130;8.158;2023-01-25T10:38:51;4.10;71.30
71188;DHT22;58893;53.130;8.158;2023-01-25T10:43:53;4.10;71.80
71188;DHT22;58893;53.130;8.158;2023-01-25T10:46:39;4.10;71.00
71188;DHT22;58893;53.130;8.158;2023-01-25T10:51:44;4.10;70.70
71188;DHT22;58893;53.130;8.158;2023-01-25T10:54:14;4.10;70.50
71188;DHT22;58893;53.130;8.158;2023-01-25T10:56:41;4.00;70.50
71188;DHT22;58893;53.130;8.158;2023-01-25T11:01:45;4.00;70.10
71188;DHT22;58893;53.130;8.158;2023-01-25T11:04:26;4.00;69.90
71188;DHT22;58893;53.130;8.158;2023-01-25T11:06:52;4.00;69.80
71188;DHT22;58893;53.130;8.158;2023-01-25T11:11:54;4.00;69.90
71188;DHT22;58893;53.130;8.158;2023-01-25T11:14:22;4.00;69.90
71188;DHT22;58893;53.130;8.158;2023-01-25T11:16:48;4.00;70.00
71188;DHT22;58893;53.130;8.158;2023-01-25T11:19:37;4.00;70.00
71188;DHT22;58893;53.130;8.158;2023-01-25T11:22:09;4.00;70.00
71188;DHT22;58893;53.130;8.158;2023-01-25T11:24:44;4.00;70.00
71188;DHT22;58893;53.130;8.158;2023-01-25T11:27:19;4.00;70.10
71188;DHT22;58893;53.130;8.158;2023-01-25T11:30:18;4.00;71.00
71188;DHT22;58893;53.130;8.158;2023-01-25T11:32:44;4.00;70.50
71188;DHT22;58893;53.130;8.158;2023-01-25T11:35:14;4.00;70.30
71188;DHT22;58893;53.130;8.158;2023-01-25T11:37:52;4.00;70.20
71188;DHT22;58893;53.130;8.158;2023-01-25T11:50:52;4.00;69.90
71188;DHT22;58893;53.130;8.158;2023-01-25T11:56:28;3.90;70.00
71188;DHT22;58893;53.130;8.158;2023-01-25T11:59:20;3.90;70.00
71188;DHT22;58893;53.130;8.158;2023-01-25T12:07:46;4.00;70.50
71188;DHT22;58893;53.130;8.158;2023-01-25T12:13:16;4.00;70.20
71188;DHT22;58893;53.130;8.158;2023-01-25T12:18:37;4.00;70.20
71188;DHT22;58893;53.130;8.158;2023-01-25T12:34:43;4.00;70.50
71188;DHT22;58893;53.130;8.158;2023-01-25T12:37:35;4.00;70.50
71188;DHT22;58893;53.130;8.158;2023-01-25T12:40:12;4.00;70.40
71188;DHT22;58893;53.130;8.158;2023-01-25T12:42:52;4.00;70.30
71188;DHT22;58893;53.130;8.158;2023-01-25T12:45:24;4.00;70.40
71188;DHT22;58893;53.130;8.158;2023-01-25T12:47:52;3.90;70.20
71188;DHT22;58893;53.130;8.158;2023-01-25T12:50:39;3.90;70.20
71188;DHT22;58893;53.130;8.158;2023-01-25T12:53:40;3.90;70.20
71188;DHT22;58893;53.130;8.158;2023-01-25T12:56:10;3.90;70.20
71188;DHT22;58893;53.130;8.158;2023-01-25T13:07:28;3.90;69.70
71188;DHT22;58893;53.130;8.158;2023-01-25T13:09:57;3.90;69.50
71188;DHT22;58893;53.130;8.158;2023-01-25T13:12:24;3.90;69.60
71188;DHT22;58893;53.130;8.158;2023-01-25T13:14:50;3.90;69.60
71188;DHT22;58893;53.130;8.158;2023-01-25T13:17:23;3.90;69.60
71188;DHT22;58893;53.130;8.158;2023-01-25T13:19:53;3.90;70.30
71188;DHT22;58893;53.130;8.158;2023-01-25T13:27:41;3.90;70.20
71188;DHT22;58893;53.130;8.158;2023-01-25T13:30:28;3.90;70.20
71188;DHT22;58893;53.130;8.158;2023-01-25T13:32:58;3.90;70.20
71188;DHT22;58893;53.130;8.158;2023-01-25T13:40:42;3.90;70.20
71188;DHT22;58893;53.130;8.158;2023-01-25T13:43:16;3.90;70.10
71188;DHT22;58893;53.130;8.158;2023-01-25T13:45:43;3.90;70.10
71188;DHT22;58893;53.130;8.158;2023-01-25T13:48:14;3.90;70.20
71188;DHT22;58893;53.130;8.158;2023-01-25T13:50:50;3.80;70.20
71188;DHT22;58893;53.130;8.158;2023-01-25T13:53:20;3.80;70.20
71188;DHT22;58893;53.130;8.158;2023-01-25T13:55:55;3.80;70.30
71188;DHT22;58893;53.130;8.158;2023-01-25T13:58:22;3.90;70.40
71188;DHT22;58893;53.130;8.158;2023-01-25T14:00:52;3.80;70.30
71188;DHT22;58893;53.130;8.158;2023-01-25T14:03:27;3.80;70.50
71188;DHT22;58893;53.130;8.158;2023-01-25T14:05:55;3.80;70.40
71188;DHT22;58893;53.130;8.158;2023-01-25T14:08:23;3.80;70.50
71188;DHT22;58893;53.130;8.158;2023-01-25T14:10:50;3.80;70.50
71188;DHT22;58893;53.130;8.158;2023-01-25T14:13:17;3.80;70.60
71188;DHT22;58893;53.130;8.158;2023-01-25T14:16:00;3.80;70.60
71188;DHT22;58893;53.130;8.158;2023-01-25T14:18:33;3.80;70.70
71188;DHT22;58893;53.130;8.158;2023-01-25T14:21:11;3.80;70.80
71188;DHT22;58893;53.130;8.158;2023-01-25T14:23:37;3.80;70.90
71188;DHT22;58893;53.130;8.158;2023-01-25T14:26:03;3.80;70.90
71188;DHT22;58893;53.130;8.158;2023-01-25T14:28:37;3.80;71.00
71188;DHT22;58893;53.130;8.158;2023-01-25T14:31:02;3.80;71.00
71188;DHT22;58893;53.130;8.158;2023-01-25T14:33:31;3.80;71.00
71188;DHT22;58893;53.130;8.158;2023-01-25T14:36:08;3.80;71.10
71188;DHT22;58893;53.130;8.158;2023-01-25T14:38:38;3.90;71.20
71188;DHT22;58893;53.130;8.158;2023-01-25T14:41:31;3.80;71.00
71188;DHT22;58893;53.130;8.158;2023-01-25T14:44:09;3.80;70.90
71188;DHT22;58893;53.130;8.158;2023-01-25T14:46:38;3.80;70.90
71188;DHT22;58893;53.130;8.158;2023-01-25T14:49:22;3.80;70.90
71188;DHT22;58893;53.130;8.158;2023-01-25T14:52:01;3.80;71.60
71188;DHT22;58893;53.130;8.158;2023-01-25T14:54:30;3.80;71.60
71188;DHT22;58893;53.130;8.158;2023-01-25T14:56:58;3.80;71.00
71188;DHT22;58893;53.130;8.158;2023-01-25T14:59:44;3.80;71.00
71188;DHT22;58893;53.130;8.158;2023-01-25T15:05:01;3.80;71.00
71188;DHT22;58893;53.130;8.158;2023-01-25T15:07:51;3.80;71.10
71188;DHT22;58893;53.130;8.158;2023-01-25T15:10:29;3.80;71.20
71188;DHT22;58893;53.130;8.158;2023-01-25T15:18:49;3.70;71.40
71188;DHT22;58893;53.130;8.158;2023-01-25T15:21:29;3.70;71.50
71188;DHT22;58893;53.130;8.158;2023-01-25T15:23:57;3.70;71.50
71188;DHT22;58893;53.130;8.158;2023-01-25T15:26:28;3.70;71.50
71188;DHT22;58893;53.130;8.158;2023-01-25T15:28:57;3.70;71.50
71188;DHT22;58893;53.130;8.158;2023-01-25T15:31:31;3.70;71.60
71188;DHT22;58893;53.130;8.158;2023-01-25T15:33:58;3.70;71.70
71188;DHT22;58893;53.130;8.158;2023-01-25T15:36:24;3.70;71.80
71188;DHT22;58893;53.130;8.158;2023-01-25T15:38:50;3.70;71.80
71188;DHT22;58893;53.130;8.158;2023-01-25T15:41:16;3.70;71.80
71188;DHT22;58893;53.130;8.158;2023-01-25T15:43:47;3.70;71.80
71188;DHT22;58893;53.130;8.158;2023-01-25T15:46:22;3.70;71.90
71188;DHT22;58893;53.130;8.158;2023-01-25T15:48:50;3.70;72.00
71188;DHT22;58893;53.130;8.158;2023-01-25T15:51:16;3.70;72.00
71188;DHT22;58893;53.130;8.158;2023-01-25T15:53:42;3.70;72.00
71188;DHT22;58893;53.130;8.158;2023-01-25T15:59:16;3.60;72.10
71188;DHT22;58893;53.130;8.158;2023-01-25T16:01:42;3.60;72.00
71188;DHT22;58893;53.130;8.158;2023-01-25T16:04:09;3.60;72.10
71188;DHT22;58893;53.130;8.158;2023-01-25T16:06:50;3.70;72.30
71188;DHT22;58893;53.130;8.158;2023-01-25T16:09:26;3.70;72.30
71188;DHT22;58893;53.130;8.158;2023-01-25T16:11:57;3.70;72.30
71188;DHT22;58893;53.130;8.158;2023-01-25T16:14:23;3.60;72.10
71188;DHT22;58893;53.130;8.158;2023-01-25T16:16:55;3.60;72.10
71188;DHT22;58893;53.130;8.158;2023-01-25T16:19:22;3.70;72.10
71188;DHT22;58893;53.130;8.158;2023-01-25T16:21:49;3.60;72.00
71188;DHT22;58893;53.130;8.158;2023-01-25T16:24:15;3.60;72.00
71188;DHT22;58893;53.130;8.158;2023-01-25T16:26:51;3.60;72.00
71188;DHT22;58893;53.130;8.158;2023-01-25T16:29:17;3.70;72.30
71188;DHT22;58893;53.130;8.158;2023-01-25T16:31:43;3.60;72.20
71188;DHT22;58893;53.130;8.158;2023-01-25T16:34:08;3.60;72.20
71188;DHT22;58893;53.130;8.158;2023-01-25T16:36:34;3.60;72.20
71188;DHT22;58893;53.130;8.158;2023-01-25T16:39:10;3.70;72.40
71188;DHT22;58893;53.130;8.158;2023-01-25T16:41:37;3.70;72.50
71188;DHT22;58893;53.130;8.158;2023-01-25T16:44:03;3.70;72.70
71188;DHT22;58893;53.130;8.158;2023-01-25T16:46:29;3.70;72.90
71188;DHT22;58893;53.130;8.158;2023-01-25T16:48:55;3.70;72.80
71188;DHT22;58893;53.130;8.158;2023-01-25T16:51:24;3.70;72.60
71188;DHT22;58893;53.130;8.158;2023-01-25T16:53:51;3.70;72.60
71188;DHT22;58893;53.130;8.158;2023-01-25T16:56:19;3.70;72.50
71188;DHT22;58893;53.130;8.158;2023-01-25T16:58:46;3.70;72.40
71188;DHT22;58893;53.130;8.158;2023-01-25T17:01:13;3.70;72.40
71188;DHT22;58893;53.130;8.158;2023-01-25T17:03:39;3.70;72.40
71188;DHT22;58893;53.130;8.158;2023-01-25T17:06:05;3.70;72.50
71188;DHT22;58893;53.130;8.158;2023-01-25T17:08:31;3.70;72.50
71188;DHT22;58893;53.130;8.158;2023-01-25T17:11:02;3.70;72.60
71188;DHT22;58893;53.130;8.158;2023-01-25T17:13:28;3.70;72.70
71188;DHT22;58893;53.130;8.158;2023-01-25T17:15:57;3.70;72.80
71188;DHT22;58893;53.130;8.158;2023-01-25T17:18:23;3.70;72.90
71188;DHT22;58893;53.130;8.158;2023-01-25T17:21:04;3.70;73.00
71188;DHT22;58893;53.130;8.158;2023-01-25T17:23:34;3.70;73.10
71188;DHT22;58893;53.130;8.158;2023-01-25T17:26:09;3.70;73.30
71188;DHT22;58893;53.130;8.158;2023-01-25T17:28:35;3.70;73.40
71188;DHT22;58893;53.130;8.158;2023-01-25T17:31:01;3.70;73.40
71188;DHT22;58893;53.130;8.158;2023-01-25T17:33:27;3.70;73.60
71188;DHT22;58893;53.130;8.158;2023-01-25T17:35:53;3.70;73.70
71188;DHT22;58893;53.130;8.158;2023-01-25T17:38:26;3.70;73.80
71188;DHT22;58893;53.130;8.158;2023-01-25T17:40:52;3.70;73.90
71188;DHT22;58893;53.130;8.158;2023-01-25T17:43:18;3.70;74.00
71188;DHT22;58893;53.130;8.158;2023-01-25T17:45:44;3.60;74.10
71188;DHT22;58893;53.130;8.158;2023-01-25T17:48:10;3.60;74.20
71188;DHT22;58893;53.130;8.158;2023-01-25T17:50:37;3.60;74.30